sensor_id;sensor_type;location;lat;lon;timestamp;temperature;humidity
14370;DHT22;7268;50.792;0.252;2023-07-30T00:02:04;16.30;99.90
14370;DHT22;7268;50.792;0.252;2023-07-30T00:04:31;16.30;99.90
14370;DHT22;7268;50.792;0.252;2023-07-30T00:06:58;16.30;99.90
14370;DHT22;7268;50.792;0.252;2023-07-30T00:09:25;16.20;99.90
14370;DHT22;7268;50.792;0.252;2023-07-30T00:11:52;16.20;99.90
14370;DHT22;7268;50.792;0.252;2023-07-30T00:14:19;16.20;99.90
14370;DHT22;7268;50.792;0.252;2023-07-30T00:16:46;16.20;99.90
14370;DHT22;7268;50.792;0.252;2023-07-30T00:19:12;16.20;99.90
14370;DHT22;7268;50.792;0.252;2023-07-30T00:21:39;16.20;99.90
14370;DHT22;7268;50.792;0.252;2023-07-30T00:24:06;16.10;99.90
14370;DHT22;7268;50.792;0.252;2023-07-30T00:26:33;16.10;99.90
14370;DHT22;7268;50.792;0.252;2023-07-30T00:29:01;16.10;99.90
14370;DHT22;7268;50.792;0.252;2023-07-30T00:31:28;16.10;99.90
14370;DHT22;7268;50.792;0.252;2023-07-30T00:33:55;16.10;99.90
14370;DHT22;7268;50.792;0.252;2023-07-30T00:36:22;16.10;99.90
14370;DHT22;7268;50.792;0.252;2023-07-30T00:38:49;16.10;99.90
14370;DHT22;7268;50.792;0.252;2023-07-30T00:41:15;16.10;99.90
14370;DHT22;7268;50.792;0.252;2023-07-30T00:43:42;16.00;99.90
14370;DHT22;7268;50.792;0.252;2023-07-30T00:46:09;16.10;99.90
14370;DHT22;7268;50.792;0.252;2023-07-30T00:48:36;16.20;99.90
14370;DHT22;7268;50.792;0.252;2023-07-30T00:51:03;16.30;99.90
14370;DHT22;7268;50.792;0.252;2023-07-30T00:53:31;16.40;99.90
14370;DHT22;7268;50.792;0.252;2023-07-30T00:55:58;16.50;99.90
14370;DHT22;7268;50.792;0.252;2023-07-30T00:58:25;16.50;99.90
14370;DHT22;7268;50.792;0.252;2023-07-30T01:00:53;16.60;99.90
14370;DHT22;7268;50.792;0.252;2023-07-30T01:03:21;16.60;99.90
14370;DHT22;7268;50.792;0.252;2023-07-30T01:05:48;16.60;99.90
14370;DHT22;7268;50.792;0.252;2023-07-30T01:08:14;16.60;99.90
14370;DHT22;7268;50.792;0.252;2023-07-30T01:10:42;16.60;99.90
14370;DHT22;7268;50.792;0.252;2023-07-30T01:13:10;16.70;99.90
14370;DHT22;7268;50.792;0.252;2023-07-30T01:15:38;16.60;99.90
14370;DHT22;7268;50.792;0.252;2023-07-30T01:18:06;16.60;99.90
14370;DHT22;7268;50.792;0.252;2023-07-30T01:20:33;16.60;99.90
14370;DHT22;7268;50.792;0.252;2023-07-30T01:23:00;16.60;99.90
14370;DHT22;7268;50.792;0.252;2023-07-30T01:25:30;16.60;99.90
14370;DHT22;7268;50.792;0.252;2023-07-30T01:28:01;16.60;99.90
14370;DHT22;7268;50.792;0.252;2023-07-30T01:30:41;16.60;99.90
14370;DHT22;7268;50.792;0.252;2023-07-30T01:33:10;16.60;99.90
14370;DHT22;7268;50.792;0.252;2023-07-30T01:35:38;16.60;99.90
14370;DHT22;7268;50.792;0.252;2023-07-30T01:38:06;16.60;99.90
14370;DHT22;7268;50.792;0.252;2023-07-30T01:40:34;16.60;99.90
14370;DHT22;7268;50.792;0.252;2023-07-30T01:43:01;16.60;99.90
14370;DHT22;7268;50.792;0.252;2023-07-30T01:45:28;16.70;99.90
14370;DHT22;7268;50.792;0.252;2023-07-30T01:47:55;16.60;99.90
14370;DHT22;7268;50.792;0.252;2023-07-30T01:50:22;16.60;99.90
14370;DHT22;7268;50.792;0.252;2023-07-30T01:52:49;16.60;99.90
14370;DHT22;7268;50.792;0.252;2023-07-30T01:55:16;16.60;99.90
14370;DHT22;7268;50.792;0.252;2023-07-30T01:57:43;16.60;99.90
14370;DHT22;7268;50.792;0.252;2023-07-30T02:00:10;16.60;99.90
14370;DHT22;7268;50.792;0.252;2023-07-30T02:02:37;16.60;99.90
14370;DHT22;7268;50.792;0.252;2023-07-30T02:05:04;16.60;99.90
14370;DHT22;7268;50.792;0.252;2023-07-30T02:07:31;16.60;99.90
14370;DHT22;7268;50.792;0.252;2023-07-30T02:09:58;16.60;99.90
14370;DHT22;7268;50.792;0.252;2023-07-30T02:12:25;16.60;99.90
14370;DHT22;7268;50.792;0.252;2023-07-30T02:14:52;16.60;99.90
14370;DHT22;7268;50.792;0.252;2023-07-30T02:17:19;16.60;99.90
14370;DHT22;7268;50.792;0.252;2023-07-30T02:19:46;16.60;99.90
14370;DHT22;7268;50.792;0.252;2023-07-30T02:22:13;16.60;99.90
14370;DHT22;7268;50.792;0.252;2023-07-30T02:24:40;16.60;99.90
14370;DHT22;7268;50.792;0.252;2023-07-30T02:27:07;16.60;99.90
14370;DHT22;7268;50.792;0.252;2023-07-30T02:29:34;16.60;99.90
14370;DHT22;7268;50.792;0.252;2023-07-30T02:32:00;16.60;99.90
14370;DHT22;7268;50.792;0.252;2023-07-30T02:34:27;16.60;99.90
14370;DHT22;7268;50.792;0.252;2023-07-30T02:36:54;16.60;99.90
14370;DHT22;7268;50.792;0.252;2023-07-30T02:39:21;16.60;99.90
14370;DHT22;7268;50.792;0.252;2023-07-30T02:41:48;16.50;99.90
14370;DHT22;7268;50.792;0.252;2023-07-30T02:44:15;16.30;99.90
14370;DHT22;7268;50.792;0.252;2023-07-30T02:46:42;16.20;99.90
14370;DHT22;7268;50.792;0.252;2023-07-30T02:49:09;16.10;99.90
14370;DHT22;7268;50.792;0.252;2023-07-30T02:51:36;16.00;99.90
14370;DHT22;7268;50.792;0.252;2023-07-30T02:54:05;16.00;99.90
14370;DHT22;7268;50.792;0.252;2023-07-30T02:56:32;16.00;99.90
14370;DHT22;7268;50.792;0.252;2023-07-30T02:58:59;15.90;99.90
14370;DHT22;7268;50.792;0.252;2023-07-30T03:01:26;15.90;99.90
14370;DHT22;7268;50.792;0.252;2023-07-30T03:03:53;15.90;99.90
14370;DHT22;7268;50.792;0.252;2023-07-30T03:06:20;15.90;99.90
14370;DHT22;7268;50.792;0.252;2023-07-30T03:08:47;15.90;99.90
14370;DHT22;7268;50.792;0.252;2023-07-30T03:11:13;15.90;99.90
14370;DHT22;7268;50.792;0.252;2023-07-30T03:13:40;15.90;99.90
14370;DHT22;7268;50.792;0.252;2023-07-30T03:16:07;15.90;99.90
14370;DHT22;7268;50.792;0.252;2023-07-30T03:18:34;15.90;99.90
14370;DHT22;7268;50.792;0.252;2023-07-30T03:21:01;15.90;99.90
14370;DHT22;7268;50.792;0.252;2023-07-30T03:23:28;15.90;99.90
14370;DHT22;7268;50.792;0.252;2023-07-30T03:25:55;16.00;99.90
14370;DHT22;7268;50.792;0.252;2023-07-30T03:28:22;15.90;99.90
14370;DHT22;7268;50.792;0.252;2023-07-30T03:30:49;15.90;99.90
14370;DHT22;7268;50.792;0.252;2023-07-30T03:33:17;16.00;99.90
14370;DHT22;7268;50.792;0.252;2023-07-30T03:35:44;16.00;99.90
14370;DHT22;7268;50.792;0.252;2023-07-30T03:38:10;16.00;99.90
14370;DHT22;7268;50.792;0.252;2023-07-30T03:40:37;16.00;99.90
14370;DHT22;7268;50.792;0.252;2023-07-30T03:43:04;16.00;99.90
14370;DHT22;7268;50.792;0.252;2023-07-30T03:45:31;16.00;99.90
14370;DHT22;7268;50.792;0.252;2023-07-30T03:47:59;16.00;99.90
14370;DHT22;7268;50.792;0.252;2023-07-30T03:50:26;16.00;99.90
14370;DHT22;7268;50.792;0.252;2023-07-30T03:52:53;16.00;99.90
14370;DHT22;7268;50.792;0.252;2023-07-30T03:55:20;16.00;99.90
14370;DHT22;7268;50.792;0.252;2023-07-30T03:57:47;16.00;99.90
14370;DHT22;7268;50.792;0.252;2023-07-30T04:00:14;16.00;99.90
14370;DHT22;7268;50.792;0.252;2023-07-30T04:02:41;16.10;99.90
14370;DHT22;7268;50.792;0.252;2023-07-30T04:05:08;16.10;99.90
14370;DHT22;7268;50.792;0.252;2023-07-30T04:07:35;16.10;99.90
14370;DHT22;7268;50.792;0.252;2023-07-30T04:10:06;16.10;99.90
14370;DHT22;7268;50.792;0.252;2023-07-30T04:12:32;16.10;99.70
14370;DHT22;7268;50.792;0.252;2023-07-30T04:14:59;16.10;99.90
14370;DHT22;7268;50.792;0.252;2023-07-30T04:17:26;16.10;99.90
14370;DHT22;7268;50.792;0.252;2023-07-30T04:19:53;16.00;99.80
14370;DHT22;7268;50.792;0.252;2023-07-30T04:22:20;16.00;99.90
14370;DHT22;7268;50.792;0.252;2023-07-30T04:24:47;15.90;99.90
14370;DHT22;7268;50.792;0.252;2023-07-30T04:27:14;15.90;99.90
14370;DHT22;7268;50.792;0.252;2023-07-30T04:29:41;15.80;99.90
14370;DHT22;7268;50.792;0.252;2023-07-30T04:32:08;15.70;99.90
14370;DHT22;7268;50.792;0.252;2023-07-30T04:34:35;15.60;99.90
14370;DHT22;7268;50.792;0.252;2023-07-30T04:37:02;15.50;99.90
14370;DHT22;7268;50.792;0.252;2023-07-30T04:39:30;15.50;99.90
14370;DHT22;7268;50.792;0.252;2023-07-30T04:41:58;15.40;99.90
14370;DHT22;7268;50.792;0.252;2023-07-30T04:44:25;15.40;99.90
14370;DHT22;7268;50.792;0.252;2023-07-30T04:46:52;15.30;99.90
14370;DHT22;7268;50.792;0.252;2023-07-30T04:49:19;15.30;99.90
14370;DHT22;7268;50.792;0.252;2023-07-30T04:51:46;15.20;99.90
14370;DHT22;7268;50.792;0.252;2023-07-30T04:54:13;15.20;99.90
14370;DHT22;7268;50.792;0.252;2023-07-30T04:56:40;15.20;99.90
14370;DHT22;7268;50.792;0.252;2023-07-30T04:59:06;15.20;99.90
14370;DHT22;7268;50.792;0.252;2023-07-30T05:01:33;15.30;99.90
14370;DHT22;7268;50.792;0.252;2023-07-30T05:04:01;15.40;99.70
14370;DHT22;7268;50.792;0.252;2023-07-30T05:06:28;15.50;99.20
14370;DHT22;7268;50.792;0.252;2023-07-30T05:08:56;15.60;99.30
14370;DHT22;7268;50.792;0.252;2023-07-30T05:11:22;15.70;99.40
14370;DHT22;7268;50.792;0.252;2023-07-30T05:13:50;15.80;99.50
14370;DHT22;7268;50.792;0.252;2023-07-30T05:16:16;15.90;99.30
14370;DHT22;7268;50.792;0.252;2023-07-30T05:18:43;16.00;99.40
14370;DHT22;7268;50.792;0.252;2023-07-30T05:21:11;16.10;99.10
14370;DHT22;7268;50.792;0.252;2023-07-30T05:23:38;16.10;99.40
14370;DHT22;7268;50.792;0.252;2023-07-30T05:26:05;16.20;99.10
14370;DHT22;7268;50.792;0.252;2023-07-30T05:28:32;16.20;98.80
14370;DHT22;7268;50.792;0.252;2023-07-30T05:30:59;16.20;99.10
14370;DHT22;7268;50.792;0.252;2023-07-30T05:33:26;16.20;98.80
14370;DHT22;7268;50.792;0.252;2023-07-30T05:35:53;16.20;98.90
14370;DHT22;7268;50.792;0.252;2023-07-30T05:38:20;16.20;98.60
14370;DHT22;7268;50.792;0.252;2023-07-30T05:40:47;16.20;98.30
14370;DHT22;7268;50.792;0.252;2023-07-30T05:43:14;16.20;98.30
14370;DHT22;7268;50.792;0.252;2023-07-30T05:45:41;16.30;98.80
14370;DHT22;7268;50.792;0.252;2023-07-30T05:48:08;16.40;97.90
14370;DHT22;7268;50.792;0.252;2023-07-30T05:50:35;16.50;97.70
14370;DHT22;7268;50.792;0.252;2023-07-30T05:53:02;16.50;97.40
14370;DHT22;7268;50.792;0.252;2023-07-30T05:55:29;16.50;97.40
14370;DHT22;7268;50.792;0.252;2023-07-30T05:57:56;16.50;97.30
14370;DHT22;7268;50.792;0.252;2023-07-30T06:00:23;16.80;97.10
14370;DHT22;7268;50.792;0.252;2023-07-30T06:02:51;17.10;95.50
14370;DHT22;7268;50.792;0.252;2023-07-30T06:05:18;17.60;95.00
14370;DHT22;7268;50.792;0.252;2023-07-30T06:07:45;18.00;94.00
14370;DHT22;7268;50.792;0.252;2023-07-30T06:10:12;18.70;93.20
14370;DHT22;7268;50.792;0.252;2023-07-30T06:12:38;19.30;92.50
14370;DHT22;7268;50.792;0.252;2023-07-30T06:15:06;19.60;91.50
14370;DHT22;7268;50.792;0.252;2023-07-30T06:17:33;20.00;91.10
14370;DHT22;7268;50.792;0.252;2023-07-30T06:20:00;20.00;91.40
14370;DHT22;7268;50.792;0.252;2023-07-30T06:22:27;20.20;90.70
14370;DHT22;7268;50.792;0.252;2023-07-30T06:24:54;19.30;92.50
14370;DHT22;7268;50.792;0.252;2023-07-30T06:27:21;20.10;92.10
14370;DHT22;7268;50.792;0.252;2023-07-30T06:29:48;21.10;90.00
14370;DHT22;7268;50.792;0.252;2023-07-30T06:32:15;21.50;86.70
14370;DHT22;7268;50.792;0.252;2023-07-30T06:34:42;21.20;89.90
14370;DHT22;7268;50.792;0.252;2023-07-30T06:37:08;21.40;87.60
14370;DHT22;7268;50.792;0.252;2023-07-30T06:39:35;21.00;90.30
14370;DHT22;7268;50.792;0.252;2023-07-30T06:42:02;20.70;90.90
14370;DHT22;7268;50.792;0.252;2023-07-30T06:44:29;20.20;91.60
14370;DHT22;7268;50.792;0.252;2023-07-30T06:46:56;19.90;92.70
14370;DHT22;7268;50.792;0.252;2023-07-30T06:49:23;19.90;93.00
14370;DHT22;7268;50.792;0.252;2023-07-30T06:51:50;20.60;91.70
14370;DHT22;7268;50.792;0.252;2023-07-30T06:54:17;21.20;90.50
14370;DHT22;7268;50.792;0.252;2023-07-30T06:56:44;21.00;91.00
14370;DHT22;7268;50.792;0.252;2023-07-30T06:59:11;20.50;91.90
14370;DHT22;7268;50.792;0.252;2023-07-30T07:01:38;21.70;90.30
14370;DHT22;7268;50.792;0.252;2023-07-30T07:04:05;22.70;87.20
14370;DHT22;7268;50.792;0.252;2023-07-30T07:06:32;21.80;86.80
14370;DHT22;7268;50.792;0.252;2023-07-30T07:08:59;20.90;90.60
14370;DHT22;7268;50.792;0.252;2023-07-30T07:11:26;20.10;91.20
14370;DHT22;7268;50.792;0.252;2023-07-30T07:13:53;20.50;91.10
14370;DHT22;7268;50.792;0.252;2023-07-30T07:16:20;21.20;90.90
14370;DHT22;7268;50.792;0.252;2023-07-30T07:18:47;21.20;90.40
14370;DHT22;7268;50.792;0.252;2023-07-30T07:21:15;21.30;90.80
14370;DHT22;7268;50.792;0.252;2023-07-30T07:23:42;21.20;90.40
14370;DHT22;7268;50.792;0.252;2023-07-30T07:26:09;20.90;91.50
14370;DHT22;7268;50.792;0.252;2023-07-30T07:28:36;20.30;92.40
14370;DHT22;7268;50.792;0.252;2023-07-30T07:31:04;20.50;92.70
14370;DHT22;7268;50.792;0.252;2023-07-30T07:33:31;20.50;92.90
14370;DHT22;7268;50.792;0.252;2023-07-30T07:36:08;20.30;91.80
14370;DHT22;7268;50.792;0.252;2023-07-30T07:38:35;19.80;93.10
14370;DHT22;7268;50.792;0.252;2023-07-30T07:41:02;20.20;91.50
14370;DHT22;7268;50.792;0.252;2023-07-30T07:43:29;20.90;90.30
14370;DHT22;7268;50.792;0.252;2023-07-30T07:45:56;21.70;87.50
14370;DHT22;7268;50.792;0.252;2023-07-30T07:48:23;22.40;87.00
14370;DHT22;7268;50.792;0.252;2023-07-30T07:50:50;21.70;90.00
14370;DHT22;7268;50.792;0.252;2023-07-30T07:53:17;21.20;90.70
14370;DHT22;7268;50.792;0.252;2023-07-30T07:55:44;21.20;90.40
14370;DHT22;7268;50.792;0.252;2023-07-30T07:58:10;20.70;90.80
14370;DHT22;7268;50.792;0.252;2023-07-30T08:00:37;20.80;91.90
14370;DHT22;7268;50.792;0.252;2023-07-30T08:03:04;21.80;90.40
14370;DHT22;7268;50.792;0.252;2023-07-30T08:05:31;21.90;89.70
14370;DHT22;7268;50.792;0.252;2023-07-30T08:07:58;22.30;88.30
14370;DHT22;7268;50.792;0.252;2023-07-30T08:10:25;21.70;90.10
14370;DHT22;7268;50.792;0.252;2023-07-30T08:12:52;22.40;88.20
14370;DHT22;7268;50.792;0.252;2023-07-30T08:15:19;23.00;85.70
14370;DHT22;7268;50.792;0.252;2023-07-30T08:17:46;22.70;85.10
14370;DHT22;7268;50.792;0.252;2023-07-30T08:20:13;22.50;85.00
14370;DHT22;7268;50.792;0.252;2023-07-30T08:22:40;21.50;89.00
14370;DHT22;7268;50.792;0.252;2023-07-30T08:25:07;21.40;89.70
14370;DHT22;7268;50.792;0.252;2023-07-30T08:27:34;20.90;90.80
14370;DHT22;7268;50.792;0.252;2023-07-30T08:30:01;21.80;87.30
14370;DHT22;7268;50.792;0.252;2023-07-30T08:32:28;23.10;82.30
14370;DHT22;7268;50.792;0.252;2023-07-30T08:34:55;24.30;79.50
14370;DHT22;7268;50.792;0.252;2023-07-30T08:37:22;24.00;80.40
14370;DHT22;7268;50.792;0.252;2023-07-30T08:39:48;21.60;88.50
14370;DHT22;7268;50.792;0.252;2023-07-30T08:42:16;20.50;91.90
14370;DHT22;7268;50.792;0.252;2023-07-30T08:44:43;20.30;93.10
14370;DHT22;7268;50.792;0.252;2023-07-30T08:47:10;20.90;91.40
14370;DHT22;7268;50.792;0.252;2023-07-30T08:49:38;20.70;90.80
14370;DHT22;7268;50.792;0.252;2023-07-30T08:52:08;20.30;91.70
14370;DHT22;7268;50.792;0.252;2023-07-30T08:54:38;21.00;91.10
14370;DHT22;7268;50.792;0.252;2023-07-30T08:57:06;21.80;87.60
14370;DHT22;7268;50.792;0.252;2023-07-30T08:59:39;21.90;86.40
14370;DHT22;7268;50.792;0.252;2023-07-30T09:02:13;22.80;85.20
14370;DHT22;7268;50.792;0.252;2023-07-30T09:04:47;23.40;83.30
14370;DHT22;7268;50.792;0.252;2023-07-30T09:07:16;24.80;80.70
14370;DHT22;7268;50.792;0.252;2023-07-30T09:09:43;24.00;80.00
14370;DHT22;7268;50.792;0.252;2023-07-30T09:12:14;24.30;81.10
14370;DHT22;7268;50.792;0.252;2023-07-30T09:14:46;24.70;79.70
14370;DHT22;7268;50.792;0.252;2023-07-30T09:17:18;22.80;86.10
14370;DHT22;7268;50.792;0.252;2023-07-30T09:19:45;21.90;88.50
14370;DHT22;7268;50.792;0.252;2023-07-30T09:22:28;21.00;90.90
14370;DHT22;7268;50.792;0.252;2023-07-30T09:24:56;20.50;92.20
14370;DHT22;7268;50.792;0.252;2023-07-30T09:27:25;20.60;92.60
14370;DHT22;7268;50.792;0.252;2023-07-30T09:29:57;20.50;91.90
14370;DHT22;7268;50.792;0.252;2023-07-30T09:32:28;20.40;93.00
14370;DHT22;7268;50.792;0.252;2023-07-30T09:34:56;20.40;93.40
14370;DHT22;7268;50.792;0.252;2023-07-30T09:37:30;20.30;93.20
14370;DHT22;7268;50.792;0.252;2023-07-30T09:39:57;20.00;93.40
14370;DHT22;7268;50.792;0.252;2023-07-30T09:42:27;20.10;93.70
14370;DHT22;7268;50.792;0.252;2023-07-30T09:44:58;20.50;93.60
14370;DHT22;7268;50.792;0.252;2023-07-30T09:47:30;20.00;93.20
14370;DHT22;7268;50.792;0.252;2023-07-30T09:49:57;19.60;94.40
14370;DHT22;7268;50.792;0.252;2023-07-30T09:52:24;19.90;94.20
14370;DHT22;7268;50.792;0.252;2023-07-30T09:54:52;20.90;92.70
14370;DHT22;7268;50.792;0.252;2023-07-30T09:57:19;21.60;90.90
14370;DHT22;7268;50.792;0.252;2023-07-30T09:59:46;21.60;90.60
14370;DHT22;7268;50.792;0.252;2023-07-30T10:02:14;21.90;90.80
14370;DHT22;7268;50.792;0.252;2023-07-30T10:04:43;22.00;90.40
14370;DHT22;7268;50.792;0.252;2023-07-30T10:07:16;21.50;90.20
14370;DHT22;7268;50.792;0.252;2023-07-30T10:09:45;22.60;90.10
14370;DHT22;7268;50.792;0.252;2023-07-30T10:12:21;22.30;89.20
14370;DHT22;7268;50.792;0.252;2023-07-30T10:14:49;22.50;90.00
14370;DHT22;7268;50.792;0.252;2023-07-30T10:17:17;22.30;88.80
14370;DHT22;7268;50.792;0.252;2023-07-30T10:19:49;22.80;87.20
14370;DHT22;7268;50.792;0.252;2023-07-30T10:22:22;21.70;90.30
14370;DHT22;7268;50.792;0.252;2023-07-30T10:24:57;22.40;90.80
14370;DHT22;7268;50.792;0.252;2023-07-30T10:27:47;23.40;86.70
14370;DHT22;7268;50.792;0.252;2023-07-30T10:30:18;23.60;86.90
14370;DHT22;7268;50.792;0.252;2023-07-30T10:32:58;22.60;88.80
14370;DHT22;7268;50.792;0.252;2023-07-30T10:35:43;21.80;90.70
14370;DHT22;7268;50.792;0.252;2023-07-30T10:38:22;20.50;93.90
14370;DHT22;7268;50.792;0.252;2023-07-30T10:41:12;19.90;97.00
14370;DHT22;7268;50.792;0.252;2023-07-30T10:43:46;19.40;96.60
14370;DHT22;7268;50.792;0.252;2023-07-30T10:46:16;19.60;97.20
14370;DHT22;7268;50.792;0.252;2023-07-30T10:48:46;20.00;96.90
14370;DHT22;7268;50.792;0.252;2023-07-30T10:51:15;20.20;95.60
14370;DHT22;7268;50.792;0.252;2023-07-30T10:53:48;20.00;95.60
14370;DHT22;7268;50.792;0.252;2023-07-30T10:56:23;19.30;96.00
14370;DHT22;7268;50.792;0.252;2023-07-30T10:58:52;18.80;97.20
14370;DHT22;7268;50.792;0.252;2023-07-30T11:01:20;18.20;97.90
14370;DHT22;7268;50.792;0.252;2023-07-30T11:03:51;18.30;99.40
14370;DHT22;7268;50.792;0.252;2023-07-30T11:06:25;18.80;99.20
14370;DHT22;7268;50.792;0.252;2023-07-30T11:08:52;19.20;96.60
14370;DHT22;7268;50.792;0.252;2023-07-30T11:11:19;18.90;97.00
14370;DHT22;7268;50.792;0.252;2023-07-30T11:13:47;18.80;97.70
14370;DHT22;7268;50.792;0.252;2023-07-30T11:16:15;18.50;98.10
14370;DHT22;7268;50.792;0.252;2023-07-30T11:18:43;18.10;99.00
14370;DHT22;7268;50.792;0.252;2023-07-30T11:21:12;17.90;98.80
14370;DHT22;7268;50.792;0.252;2023-07-30T11:23:42;17.80;99.10
14370;DHT22;7268;50.792;0.252;2023-07-30T11:26:14;18.00;99.70
14370;DHT22;7268;50.792;0.252;2023-07-30T11:28:41;18.30;99.90
14370;DHT22;7268;50.792;0.252;2023-07-30T11:33:37;17.40;99.90
14370;DHT22;7268;50.792;0.252;2023-07-30T11:36:06;17.40;99.90
14370;DHT22;7268;50.792;0.252;2023-07-30T11:38:34;17.30;99.90
14370;DHT22;7268;50.792;0.252;2023-07-30T11:41:01;17.40;99.90
14370;DHT22;7268;50.792;0.252;2023-07-30T11:43:29;17.20;99.90
14370;DHT22;7268;50.792;0.252;2023-07-30T11:48:35;17.10;99.90
14370;DHT22;7268;50.792;0.252;2023-07-30T11:51:02;17.10;99.90
14370;DHT22;7268;50.792;0.252;2023-07-30T11:53:50;17.20;99.90
14370;DHT22;7268;50.792;0.252;2023-07-30T11:56:18;17.10;99.90
14370;DHT22;7268;50.792;0.252;2023-07-30T11:58:46;16.90;99.90
14370;DHT22;7268;50.792;0.252;2023-07-30T12:01:17;17.00;99.90
14370;DHT22;7268;50.792;0.252;2023-07-30T12:03:45;16.80;99.90
14370;DHT22;7268;50.792;0.252;2023-07-30T12:06:12;16.60;99.90
14370;DHT22;7268;50.792;0.252;2023-07-30T12:08:39;16.50;99.90
14370;DHT22;7268;50.792;0.252;2023-07-30T12:11:08;16.50;99.90
14370;DHT22;7268;50.792;0.252;2023-07-30T12:13:43;16.60;99.90
14370;DHT22;7268;50.792;0.252;2023-07-30T12:16:13;16.70;99.90
14370;DHT22;7268;50.792;0.252;2023-07-30T12:18:40;16.70;99.90
14370;DHT22;7268;50.792;0.252;2023-07-30T12:21:08;16.90;99.90
14370;DHT22;7268;50.792;0.252;2023-07-30T12:23:38;16.80;99.90
14370;DHT22;7268;50.792;0.252;2023-07-30T12:26:05;16.90;99.90
14370;DHT22;7268;50.792;0.252;2023-07-30T12:28:33;17.00;99.90
14370;DHT22;7268;50.792;0.252;2023-07-30T12:31:01;17.10;99.90
14370;DHT22;7268;50.792;0.252;2023-07-30T12:33:28;17.30;99.90
14370;DHT22;7268;50.792;0.252;2023-07-30T12:35:55;17.40;99.90
14370;DHT22;7268;50.792;0.252;2023-07-30T12:38:22;17.40;99.90
14370;DHT22;7268;50.792;0.252;2023-07-30T12:40:49;17.50;99.90
14370;DHT22;7268;50.792;0.252;2023-07-30T12:43:16;17.50;99.90
14370;DHT22;7268;50.792;0.252;2023-07-30T12:45:45;17.60;99.90
14370;DHT22;7268;50.792;0.252;2023-07-30T12:48:13;17.60;99.90
14370;DHT22;7268;50.792;0.252;2023-07-30T12:50:40;17.60;99.90
14370;DHT22;7268;50.792;0.252;2023-07-30T12:53:07;17.70;99.90
14370;DHT22;7268;50.792;0.252;2023-07-30T12:55:34;17.50;99.90
14370;DHT22;7268;50.792;0.252;2023-07-30T12:58:01;17.60;99.90
14370;DHT22;7268;50.792;0.252;2023-07-30T13:00:29;17.50;99.90
14370;DHT22;7268;50.792;0.252;2023-07-30T13:02:56;17.50;99.90
14370;DHT22;7268;50.792;0.252;2023-07-30T13:05:25;17.50;99.90
14370;DHT22;7268;50.792;0.252;2023-07-30T13:07:52;17.40;99.90
14370;DHT22;7268;50.792;0.252;2023-07-30T13:10:19;17.40;99.90
14370;DHT22;7268;50.792;0.252;2023-07-30T13:12:46;17.50;99.90
14370;DHT22;7268;50.792;0.252;2023-07-30T13:15:13;17.40;99.90
14370;DHT22;7268;50.792;0.252;2023-07-30T13:17:40;17.30;99.90
14370;DHT22;7268;50.792;0.252;2023-07-30T13:20:08;17.30;99.90
14370;DHT22;7268;50.792;0.252;2023-07-30T13:22:35;17.40;99.90
14370;DHT22;7268;50.792;0.252;2023-07-30T13:25:02;17.40;99.90
14370;DHT22;7268;50.792;0.252;2023-07-30T13:27:29;17.30;99.90
14370;DHT22;7268;50.792;0.252;2023-07-30T13:29:57;17.40;99.90
14370;DHT22;7268;50.792;0.252;2023-07-30T13:32:24;17.40;99.90
14370;DHT22;7268;50.792;0.252;2023-07-30T13:34:51;17.40;99.90
14370;DHT22;7268;50.792;0.252;2023-07-30T13:37:18;17.50;99.90
14370;DHT22;7268;50.792;0.252;2023-07-30T13:39:45;17.50;99.90
14370;DHT22;7268;50.792;0.252;2023-07-30T13:42:12;17.50;99.90
14370;DHT22;7268;50.792;0.252;2023-07-30T13:44:39;17.40;99.90
14370;DHT22;7268;50.792;0.252;2023-07-30T13:47:06;17.30;99.90
14370;DHT22;7268;50.792;0.252;2023-07-30T13:49:34;17.20;99.90
14370;DHT22;7268;50.792;0.252;2023-07-30T13:52:01;17.20;99.90
14370;DHT22;7268;50.792;0.252;2023-07-30T13:54:28;17.20;99.90
14370;DHT22;7268;50.792;0.252;2023-07-30T13:56:54;17.30;99.90
14370;DHT22;7268;50.792;0.252;2023-07-30T13:59:21;17.30;99.90
14370;DHT22;7268;50.792;0.252;2023-07-30T14:01:48;17.30;99.90
14370;DHT22;7268;50.792;0.252;2023-07-30T14:04:15;17.30;99.90
14370;DHT22;7268;50.792;0.252;2023-07-30T14:06:42;17.40;99.90
14370;DHT22;7268;50.792;0.252;2023-07-30T14:09:11;17.40;99.90
14370;DHT22;7268;50.792;0.252;2023-07-30T14:11:37;17.30;99.90
14370;DHT22;7268;50.792;0.252;2023-07-30T14:14:07;17.40;99.90
14370;DHT22;7268;50.792;0.252;2023-07-30T14:16:34;17.40;99.90
14370;DHT22;7268;50.792;0.252;2023-07-30T14:19:01;17.40;99.90
14370;DHT22;7268;50.792;0.252;2023-07-30T14:21:28;17.40;99.90
14370;DHT22;7268;50.792;0.252;2023-07-30T14:23:55;17.50;99.90
14370;DHT22;7268;50.792;0.252;2023-07-30T14:26:22;17.60;99.90
14370;DHT22;7268;50.792;0.252;2023-07-30T14:28:49;17.50;99.90
14370;DHT22;7268;50.792;0.252;2023-07-30T14:31:16;17.60;99.90
14370;DHT22;7268;50.792;0.252;2023-07-30T14:33:43;17.60;99.90
14370;DHT22;7268;50.792;0.252;2023-07-30T14:36:10;17.70;99.90
14370;DHT22;7268;50.792;0.252;2023-07-30T14:38:38;17.70;99.90
14370;DHT22;7268;50.792;0.252;2023-07-30T14:41:05;17.70;99.90
14370;DHT22;7268;50.792;0.252;2023-07-30T14:43:33;17.80;99.90
14370;DHT22;7268;50.792;0.252;2023-07-30T14:46:00;17.80;99.90
14370;DHT22;7268;50.792;0.252;2023-07-30T14:48:27;17.80;99.90
14370;DHT22;7268;50.792;0.252;2023-07-30T14:50:55;17.80;99.90
14370;DHT22;7268;50.792;0.252;2023-07-30T14:53:22;17.90;99.90
14370;DHT22;7268;50.792;0.252;2023-07-30T14:55:49;18.00;99.90
14370;DHT22;7268;50.792;0.252;2023-07-30T14:58:16;17.80;99.90
14370;DHT22;7268;50.792;0.252;2023-07-30T15:00:42;17.80;99.90
14370;DHT22;7268;50.792;0.252;2023-07-30T15:03:10;17.90;99.90
14370;DHT22;7268;50.792;0.252;2023-07-30T15:05:38;18.00;99.90
14370;DHT22;7268;50.792;0.252;2023-07-30T15:08:05;17.90;99.90
14370;DHT22;7268;50.792;0.252;2023-07-30T15:10:32;17.90;99.90
14370;DHT22;7268;50.792;0.252;2023-07-30T15:12:59;17.90;99.90
14370;DHT22;7268;50.792;0.252;2023-07-30T15:15:26;17.90;99.90
14370;DHT22;7268;50.792;0.252;2023-07-30T15:17:53;17.90;99.90
14370;DHT22;7268;50.792;0.252;2023-07-30T15:20:20;17.90;99.90
14370;DHT22;7268;50.792;0.252;2023-07-30T15:22:47;17.90;99.90
14370;DHT22;7268;50.792;0.252;2023-07-30T15:25:14;17.80;99.90
14370;DHT22;7268;50.792;0.252;2023-07-30T15:27:41;17.80;99.90
14370;DHT22;7268;50.792;0.252;2023-07-30T15:30:09;17.80;99.90
14370;DHT22;7268;50.792;0.252;2023-07-30T15:32:44;17.70;99.90
14370;DHT22;7268;50.792;0.252;2023-07-30T15:35:11;17.60;99.90
14370;DHT22;7268;50.792;0.252;2023-07-30T15:37:38;17.70;99.90
14370;DHT22;7268;50.792;0.252;2023-07-30T15:40:06;17.60;99.90
14370;DHT22;7268;50.792;0.252;2023-07-30T15:42:33;17.60;99.90
14370;DHT22;7268;50.792;0.252;2023-07-30T15:45:00;17.60;99.90
14370;DHT22;7268;50.792;0.252;2023-07-30T15:47:27;17.60;99.90
14370;DHT22;7268;50.792;0.252;2023-07-30T15:49:54;17.60;99.90
14370;DHT22;7268;50.792;0.252;2023-07-30T15:52:21;17.60;99.90
14370;DHT22;7268;50.792;0.252;2023-07-30T15:54:49;17.60;99.90